KR-0022 weather

Busan (Jakjeon) Naval Base Heliport
Yongho-dong, Nam-Gu, Busan, Busan Gwang'yeogsi, South Korea

Public forecast

Using degrees Celsius for public forecast. Weather courtesy of forecast.io.

METAR (pilot weather report)

Closest report is Gimhae International Airport, 9.5 nm (17.6 km) WNW. Retrieved 2019/07/24 05:00 UTC (48 minutes ago):

RKPK 240500Z 16013KT 9999 FEW030 BKN200 29/24 Q1005

TAF (pilot weather forecast)

Forecast is more than 12 hours old.

Closest forecast is Gimhae International Airport, 9.5 nm (17.6 km) WNW. Retrieved 2019/07/23 00:00 UTC (1 day ago):

TAF RKPK 232300Z 2400/2506 18006KT 9999 BKN015 BKN080 TX30/2406Z TN24/2420Z BECMG 2401/2402 BKN030 BKN200 BECMG 2408/2409 SCT030